createdAt,value
2023-02-25T00:01:48.721Z,99520.94
2023-02-25T00:04:23.863Z,99529.69
2023-02-25T00:06:51.714Z,99524.38
2023-02-25T00:09:19.376Z,99528.06
2023-02-25T00:11:47.065Z,99510.91
2023-02-25T00:14:14.970Z,99519.50
2023-02-25T00:16:42.837Z,99513.78
2023-02-25T00:19:11.186Z,99524.38
2023-02-25T00:21:40.405Z,99506.44
2023-02-25T00:24:16.482Z,99503.16
2023-02-25T00:26:44.667Z,99524.81
2023-02-25T00:29:12.859Z,99537.06
2023-02-25T00:31:40.724Z,99527.84
2023-02-25T00:34:08.662Z,99528.47
2023-02-25T00:36:36.719Z,99519.47
2023-02-25T00:39:05.911Z,99523.56
2023-02-25T00:41:33.715Z,99528.47
2023-02-25T00:44:02.559Z,99524.38
2023-02-25T00:46:31.604Z,99539.91
2023-02-25T00:48:59.772Z,99537.47
2023-02-25T00:51:29.496Z,99543.16
2023-02-25T00:53:57.715Z,99535.19
2023-02-25T00:56:27.853Z,99534.41
2023-02-25T00:58:55.885Z,99536.25
2023-02-25T01:01:25.542Z,99539.94
2023-02-25T01:03:55.568Z,99539.53
2023-02-25T01:06:23.826Z,99547.69
2023-02-25T01:08:52.165Z,99555.41
2023-02-25T01:11:21.982Z,99560.50
2023-02-25T01:13:51.421Z,99561.50
2023-02-25T01:16:21.326Z,99562.56
2023-02-25T01:18:49.521Z,99563.16
2023-02-25T01:21:18.972Z,99569.25
2023-02-25T01:23:47.080Z,99570.47
2023-02-25T01:26:15.338Z,99565.16
2023-02-25T01:28:43.332Z,99556.59
2023-02-25T01:31:19.622Z,99556.19
2023-02-25T01:33:47.962Z,99560.69
2023-02-25T01:36:15.653Z,99563.13
2023-02-25T01:38:43.330Z,99563.50
2023-02-25T01:41:11.626Z,99568.19
2023-02-25T01:43:39.484Z,99560.84
2023-02-25T01:46:07.248Z,99563.50
2023-02-25T01:48:38.263Z,99560.19
2023-02-25T01:51:10.415Z,99563.28
2023-02-25T01:53:40.362Z,99558.97
2023-02-25T01:56:10.676Z,99563.72
2023-02-25T01:58:39.196Z,99562.69
2023-02-25T02:01:08.248Z,99558.63
2023-02-25T02:03:37.662Z,99566.38
2023-02-25T02:06:09.617Z,99565.97
2023-02-25T02:08:38.195Z,99562.34
2023-02-25T02:11:06.553Z,99562.88
2023-02-25T02:13:35.717Z,99552.69
2023-02-25T02:16:13.385Z,99562.28
2023-02-25T02:18:46.283Z,99560.25
2023-02-25T02:21:23.499Z,99565.72
2023-02-25T02:24:21.235Z,99566.38
2023-02-25T02:26:58.489Z,99569.56
2023-02-25T02:29:55.004Z,99566.53
2023-02-25T02:32:31.989Z,99569.34
2023-02-25T02:35:05.791Z,99568.72
2023-02-25T02:37:41.392Z,99558.28
2023-02-25T02:40:19.298Z,99547.91
2023-02-25T02:42:58.536Z,99551.19
2023-02-25T02:45:30.050Z,99554.50
2023-02-25T02:48:01.950Z,99553.28
2023-02-25T02:50:34.613Z,99551.66
2023-02-25T02:53:05.235Z,99557.53
2023-02-25T02:55:35.473Z,99550.84
2023-02-25T02:58:07.352Z,99553.34
2023-02-25T03:00:39.197Z,99556.38
2023-02-25T03:03:11.150Z,99556.41
2023-02-25T03:05:40.646Z,99576.00
2023-02-25T03:08:12.044Z,99579.47
2023-02-25T03:10:39.937Z,99571.69
2023-02-25T03:13:07.599Z,99566.81
2023-02-25T03:15:35.760Z,99575.75
2023-02-25T03:18:09.491Z,99574.56
2023-02-25T03:20:39.224Z,99576.16
2023-02-25T03:23:09.967Z,99582.28
2023-02-25T03:25:47.567Z,99577.19
2023-02-25T03:28:25.068Z,99582.66
2023-02-25T03:30:59.640Z,99586.31
2023-02-25T03:33:33.029Z,99592.06
2023-02-25T03:36:03.774Z,99595.53
2023-02-25T03:38:33.151Z,99594.94
2023-02-25T03:41:02.760Z,99595.53
2023-02-25T03:43:33.284Z,99591.63
2023-02-25T03:46:01.714Z,99593.28
2023-02-25T03:48:31.477Z,99596.53
2023-02-25T03:51:02.571Z,99606.31
2023-02-25T03:53:33.268Z,99608.91
2023-02-25T03:56:05.761Z,99613.19
2023-02-25T03:58:34.883Z,99609.13
2023-02-25T04:01:05.438Z,99611.56
2023-02-25T04:03:34.952Z,99615.66
2023-02-25T04:06:02.893Z,99620.16
2023-02-25T04:08:30.540Z,99625.47
2023-02-25T04:10:58.156Z,99620.34
2023-02-25T04:13:26.115Z,99618.97
2023-02-25T04:15:54.121Z,99614.63
2023-02-25T04:18:21.808Z,99615.66
2023-02-25T04:20:51.136Z,99626.91
2023-02-25T04:23:18.771Z,99622.97
2023-02-25T04:25:46.418Z,99633.41
2023-02-25T04:28:14.228Z,99623.44
2023-02-25T04:30:42.283Z,99622.59
2023-02-25T04:33:11.664Z,99630.78
2023-02-25T04:35:39.642Z,99627.13
2023-02-25T04:38:09.307Z,99622.22
2023-02-25T04:40:37.374Z,99616.25
2023-02-25T04:43:05.063Z,99616.84
2023-02-25T04:45:32.810Z,99618.53
2023-02-25T04:48:00.859Z,99623.81
2023-02-25T04:50:28.532Z,99626.69
2023-02-25T04:52:56.300Z,99633.66
2023-02-25T04:55:25.617Z,99629.19
2023-02-25T04:57:53.236Z,99632.47
2023-02-25T05:00:24.252Z,99630.84
2023-02-25T05:02:52.041Z,99628.19
2023-02-25T05:05:20.423Z,99633.34
2023-02-25T05:07:48.265Z,99624.78
2023-02-25T05:10:16.362Z,99629.66
2023-02-25T05:12:45.405Z,99632.91
2023-02-25T05:15:13.570Z,99635.09
2023-02-25T05:17:41.228Z,99637.59
2023-02-25T05:20:13.078Z,99638.84
2023-02-25T05:22:41.614Z,99629.25
2023-02-25T05:25:11.258Z,99633.72
2023-02-25T05:27:38.921Z,99636.78
2023-02-25T05:30:09.648Z,99643.94
2023-02-25T05:32:39.069Z,99638.25
2023-02-25T05:35:08.900Z,99641.91
2023-02-25T05:37:36.615Z,99643.94
2023-02-25T05:40:04.710Z,99650.09
2023-02-25T05:42:32.332Z,99652.91
2023-02-25T05:45:00.058Z,99651.69
2023-02-25T05:47:29.232Z,99643.75
2023-02-25T05:49:56.839Z,99657.81
2023-02-25T05:52:24.540Z,99661.53
2023-02-25T05:54:52.168Z,99656.41
2023-02-25T05:57:20.043Z,99668.03
2023-02-25T05:59:47.772Z,99658.03
2023-02-25T06:02:15.478Z,99664.81
2023-02-25T06:04:44.774Z,99666.78
2023-02-25T06:07:12.575Z,99666.56
2023-02-25T06:09:40.288Z,99672.09
2023-02-25T06:12:08.764Z,99679.44
2023-02-25T06:14:36.418Z,99674.94
2023-02-25T06:17:04.412Z,99665.59
2023-02-25T06:19:32.334Z,99666.75
2023-02-25T06:22:01.734Z,99672.44
2023-02-25T06:24:29.530Z,99674.56
2023-02-25T06:26:57.184Z,99680.25
2023-02-25T06:29:24.881Z,99686.78
2023-02-25T06:31:52.594Z,99699.22
2023-02-25T06:34:20.293Z,99697.84
2023-02-25T06:36:48.166Z,99704.38
2023-02-25T06:39:17.184Z,99732.69
2023-02-25T06:41:45.383Z,99721.09
2023-02-25T06:44:14.860Z,99742.97
2023-02-25T06:46:43.393Z,99777.88
2023-02-25T06:49:11.416Z,99775.84
2023-02-25T06:51:39.406Z,99769.69
2023-02-25T06:54:07.036Z,99754.13
2023-02-25T06:56:36.160Z,99742.44
2023-02-25T06:59:03.975Z,99746.13
2023-02-25T07:01:31.928Z,99743.13
2023-02-25T07:03:59.596Z,99742.03
2023-02-25T07:06:27.453Z,99743.81
2023-02-25T07:08:55.218Z,99749.44
2023-02-25T07:11:29.695Z,99747.34
2023-02-25T07:13:58.882Z,99758.53
2023-02-25T07:16:26.879Z,99753.53
2023-02-25T07:18:54.568Z,99756.00
2023-02-25T07:21:23.324Z,99763.84
2023-02-25T07:23:51.347Z,99771.75
2023-02-25T07:26:19.009Z,99782.13
2023-02-25T07:28:48.269Z,99786.69
2023-02-25T07:31:22.099Z,99786.44
2023-02-25T07:33:50.276Z,99792.88
2023-02-25T07:36:18.147Z,99790.50
2023-02-25T07:38:46.892Z,99790.13
2023-02-25T07:41:15.839Z,99786.25
2023-02-25T07:43:43.913Z,99785.72
2023-02-25T07:46:13.617Z,99795.19
2023-02-25T07:48:43.379Z,99794.59
2023-02-25T07:51:13.440Z,99796.34
2023-02-25T07:53:41.162Z,99796.91
2023-02-25T07:56:10.142Z,99795.72
2023-02-25T07:58:38.218Z,99804.34
2023-02-25T08:01:09.174Z,99805.84
2023-02-25T08:03:36.862Z,99808.63
2023-02-25T08:06:09.026Z,99797.78
2023-02-25T08:08:37.306Z,99804.16
2023-02-25T08:11:06.788Z,99807.41
2023-02-25T08:13:34.976Z,99827.97
2023-02-25T08:16:05.268Z,99823.31
2023-02-25T08:18:32.989Z,99827.19
2023-02-25T08:21:02.771Z,99825.72
2023-02-25T08:23:32.465Z,99831.94
2023-02-25T08:26:00.805Z,99844.97
2023-02-25T08:28:34.373Z,99842.38
2023-02-25T08:31:03.474Z,99846.28
2023-02-25T08:33:31.735Z,99838.34
2023-02-25T08:36:09.579Z,99835.91
2023-02-25T08:38:38.957Z,99834.41
2023-02-25T08:41:08.197Z,99840.03
2023-02-25T08:43:36.551Z,99839.41
2023-02-25T08:46:06.349Z,99841.75
2023-02-25T08:48:34.173Z,99847.66
2023-02-25T08:51:04.319Z,99847.53
2023-02-25T08:53:32.228Z,99840.06
2023-02-25T08:56:05.550Z,99852.16
2023-02-25T08:58:33.396Z,99849.13
2023-02-25T09:01:01.441Z,99850.53
2023-02-25T09:03:29.132Z,99854.69
2023-02-25T09:05:57.449Z,99873.53
2023-02-25T09:08:25.087Z,99862.06
2023-02-25T09:10:52.822Z,99867.38
2023-02-25T09:13:22.214Z,99870.50
2023-02-25T09:15:57.133Z,99867.25
2023-02-25T09:18:24.906Z,99867.09
2023-02-25T09:20:53.180Z,99879.56
2023-02-25T09:23:21.036Z,99892.53
2023-02-25T09:25:48.743Z,99889.16
2023-02-25T09:28:16.381Z,99891.81
2023-02-25T09:30:47.849Z,99887.97
2023-02-25T09:33:15.992Z,99890.81
2023-02-25T09:35:43.667Z,99897.75
2023-02-25T09:38:11.452Z,99886.84
2023-02-25T09:40:39.517Z,99887.28
2023-02-25T09:43:14.705Z,99913.09
2023-02-25T09:45:47.260Z,99892.09
2023-02-25T09:48:20.038Z,99918.63
2023-02-25T09:50:52.085Z,99914.59
2023-02-25T09:53:21.834Z,99901.44
2023-02-25T09:55:51.726Z,99927.44
2023-02-25T09:58:26.165Z,99924.69
2023-02-25T10:01:00.075Z,99936.47
2023-02-25T10:03:51.426Z,99955.25
2023-02-25T10:06:23.237Z,99936.75
2023-02-25T10:08:57.401Z,99950.22
2023-02-25T10:11:34.008Z,99953.50
2023-02-25T10:14:08.991Z,99959.41
2023-02-25T10:16:43.079Z,99950.97
2023-02-25T10:19:24.990Z,99982.53
2023-02-25T10:22:02.838Z,99981.16
2023-02-25T10:24:34.748Z,99953.28
2023-02-25T10:27:11.322Z,99965.56
2023-02-25T10:29:41.450Z,99963.13
2023-02-25T10:32:19.521Z,99959.03
2023-02-25T10:34:49.526Z,99969.19
2023-02-25T10:37:22.540Z,99962.78
2023-02-25T10:39:58.420Z,100017.94
2023-02-25T10:42:26.384Z,100011.13
2023-02-25T10:44:54.669Z,99967.91
2023-02-25T10:47:32.847Z,99993.63
2023-02-25T10:50:29.819Z,99990.06
2023-02-25T10:53:04.615Z,100023.91
2023-02-25T10:55:41.249Z,99992.72
2023-02-25T10:58:24.808Z,100010.72
2023-02-25T11:00:57.721Z,100025.41
2023-02-25T11:03:26.475Z,100023.41
2023-02-25T11:06:09.271Z,99982.47
2023-02-25T11:08:37.328Z,100032.13
2023-02-25T11:11:06.948Z,100025.75
2023-02-25T11:13:36.940Z,100028.81
2023-02-25T11:16:08.541Z,100045.69
2023-02-25T11:18:38.245Z,100012.19
2023-02-25T11:21:09.249Z,100043.25
2023-02-25T11:23:40.042Z,100019.88
2023-02-25T11:26:08.321Z,100032.91
2023-02-25T11:28:40.067Z,100041.47
2023-02-25T11:31:11.977Z,100036.72
2023-02-25T11:33:42.190Z,100037.56
2023-02-25T11:36:11.626Z,100019.97
2023-02-25T11:38:41.287Z,100032.63
2023-02-25T11:41:17.896Z,100050.84
2023-02-25T11:43:45.661Z,100037.75
2023-02-25T11:46:17.924Z,100024.03
2023-02-25T11:48:50.613Z,100041.09
2023-02-25T11:51:26.847Z,100015.63
2023-02-25T11:54:05.671Z,100026.31
2023-02-25T11:56:35.488Z,100037.41
2023-02-25T11:59:20.268Z,100061.78
2023-02-25T12:02:11.289Z,100064.78
2023-02-25T12:04:50.585Z,100043.00
2023-02-25T12:07:55.481Z,100052.75
2023-02-25T12:10:49.560Z,100032.06
2023-02-25T12:13:53.702Z,100039.72
2023-02-25T12:16:58.746Z,100046.69
2023-02-25T12:19:41.381Z,100065.78
2023-02-25T12:22:17.387Z,100085.44
2023-02-25T12:25:03.833Z,100075.44
2023-02-25T12:28:09.029Z,100061.53
2023-02-25T12:30:49.867Z,100062.94
2023-02-25T12:33:38.455Z,100073.00
2023-02-25T12:36:15.638Z,100090.72
2023-02-25T12:39:02.978Z,100093.06
2023-02-25T12:41:40.618Z,100071.38
2023-02-25T12:44:31.650Z,100075.09
2023-02-25T12:47:08.366Z,100079.63
2023-02-25T12:49:49.559Z,100081.75
2023-02-25T12:52:25.340Z,100093.25
2023-02-25T12:55:08.840Z,100096.97
2023-02-25T12:57:45.712Z,100084.53
2023-02-25T13:00:25.724Z,100081.28
2023-02-25T13:03:08.380Z,100081.59
2023-02-25T13:05:57.780Z,100113.63
2023-02-25T13:08:35.650Z,100087.09
2023-02-25T13:11:15.220Z,100093.69
2023-02-25T13:13:55.148Z,100133.44
2023-02-25T13:16:31.103Z,100147.22
2023-02-25T13:19:16.579Z,100125.66
2023-02-25T13:21:53.211Z,100105.34
2023-02-25T13:24:35.045Z,100117.28
2023-02-25T13:27:22.211Z,100101.69
2023-02-25T13:30:05.038Z,100127.16
2023-02-25T13:32:37.548Z,100134.16
2023-02-25T13:35:15.585Z,100121.00
2023-02-25T13:37:52.520Z,100122.94
2023-02-25T13:40:35.855Z,100118.81
2023-02-25T13:43:23.139Z,100123.16
2023-02-25T13:46:00.750Z,100144.13
2023-02-25T13:48:39.072Z,100148.97
2023-02-25T13:51:18.235Z,100150.13
2023-02-25T13:54:04.278Z,100145.78
2023-02-25T13:56:46.444Z,100120.66
2023-02-25T13:59:23.603Z,100129.69
2023-02-25T14:02:01.692Z,100134.66
2023-02-25T14:04:47.599Z,100129.78
2023-02-25T14:07:26.441Z,100152.63
2023-02-25T14:10:02.773Z,100187.38
2023-02-25T14:12:44.286Z,100149.28
2023-02-25T14:15:39.925Z,100157.97
2023-02-25T14:18:24.911Z,100155.50
2023-02-25T14:21:02.872Z,100178.81
2023-02-25T14:23:44.233Z,100188.38
2023-02-25T14:26:22.754Z,100182.31
2023-02-25T14:29:04.600Z,100167.50
2023-02-25T14:31:38.321Z,100178.41
2023-02-25T14:34:19.681Z,100191.44
2023-02-25T14:37:01.493Z,100172.69
2023-02-25T14:39:37.150Z,100164.94
2023-02-25T14:42:18.455Z,100188.59
2023-02-25T14:44:50.973Z,100174.97
2023-02-25T14:47:22.561Z,100168.28
2023-02-25T14:49:58.844Z,100220.44
2023-02-25T14:52:58.190Z,100193.94
2023-02-25T14:55:57.804Z,100208.53
2023-02-25T14:58:34.478Z,100206.28
2023-02-25T15:01:27.860Z,100193.44
2023-02-25T15:04:08.514Z,100199.69
2023-02-25T15:06:47.934Z,100207.41
2023-02-25T15:09:35.102Z,100235.13
2023-02-25T15:12:16.987Z,100246.44
2023-02-25T15:15:04.650Z,100245.84
2023-02-25T15:17:46.901Z,100235.28
2023-02-25T15:20:27.639Z,100232.22
2023-02-25T15:23:07.388Z,100226.06
2023-02-25T15:25:45.979Z,100242.47
2023-02-25T15:28:42.587Z,100253.84
2023-02-25T15:31:29.975Z,100261.91
2023-02-25T15:34:54.307Z,100285.88
2023-02-25T15:37:30.681Z,100257.16
2023-02-25T15:40:01.369Z,100269.69
2023-02-25T15:42:46.517Z,100282.81
2023-02-25T15:45:37.810Z,100323.16
2023-02-25T15:48:32.891Z,100309.53
2023-02-25T15:51:02.302Z,100308.19
2023-02-25T15:53:46.168Z,100328.22
2023-02-25T15:56:48.704Z,100330.16
2023-02-25T15:59:42.512Z,100328.03
2023-02-25T16:02:34.811Z,100317.50
2023-02-25T16:05:03.780Z,100315.06
2023-02-25T16:07:33.218Z,100330.09
2023-02-25T16:10:05.195Z,100321.34
2023-02-25T16:12:35.364Z,100343.66
2023-02-25T16:15:03.650Z,100350.97
2023-02-25T16:17:34.273Z,100343.72
2023-02-25T16:20:16.939Z,100337.78
2023-02-25T16:22:45.834Z,100366.47
2023-02-25T16:25:16.295Z,100355.50
2023-02-25T16:27:53.562Z,100377.56
2023-02-25T16:30:24.812Z,100369.78
2023-02-25T16:33:00.662Z,100376.16
2023-02-25T16:35:31.902Z,100363.78
2023-02-25T16:38:05.657Z,100367.13
2023-02-25T16:40:37.076Z,100371.22
2023-02-25T16:43:07.422Z,100394.41
2023-02-25T16:45:44.442Z,100392.00
2023-02-25T16:48:17.214Z,100383.09
2023-02-25T16:50:47.542Z,100405.47
2023-02-25T16:53:19.593Z,100407.44
2023-02-25T16:55:48.532Z,100421.41
2023-02-25T16:58:25.026Z,100408.38
2023-02-25T17:00:54.762Z,100410.72
2023-02-25T17:03:24.988Z,100420.09
2023-02-25T17:06:04.828Z,100437.66
2023-02-25T17:08:32.439Z,100425.75
2023-02-25T17:11:02.109Z,100437.34
2023-02-25T17:13:35.095Z,100430.75
2023-02-25T17:16:04.109Z,100433.06
2023-02-25T17:18:33.129Z,100447.88
2023-02-25T17:21:03.621Z,100454.16
2023-02-25T17:23:31.831Z,100435.75
2023-02-25T17:26:00.352Z,100455.97
2023-02-25T17:28:32.098Z,100455.00
2023-02-25T17:31:08.512Z,100458.94
2023-02-25T17:33:36.346Z,100468.56
2023-02-25T17:36:09.874Z,100472.53
2023-02-25T17:38:39.111Z,100474.34
2023-02-25T17:41:07.459Z,100460.16
2023-02-25T17:43:38.229Z,100462.09
2023-02-25T17:46:17.076Z,100465.41
2023-02-25T17:48:51.617Z,100469.22
2023-02-25T17:51:19.413Z,100465.25
2023-02-25T17:53:49.171Z,100468.53
2023-02-25T17:56:22.722Z,100456.50
2023-02-25T17:58:52.867Z,100478.47
2023-02-25T18:01:24.734Z,100479.44
2023-02-25T18:03:53.085Z,100483.78
2023-02-25T18:06:36.573Z,100476.78
2023-02-25T18:09:04.981Z,100465.94
2023-02-25T18:11:35.184Z,100467.56
2023-02-25T18:14:20.345Z,100487.38
2023-02-25T18:16:48.231Z,100483.38
2023-02-25T18:19:32.783Z,100471.53
2023-02-25T18:22:00.504Z,100469.38
2023-02-25T18:24:32.965Z,100490.47
2023-02-25T18:27:02.672Z,100502.22
2023-02-25T18:29:32.230Z,100514.31
2023-02-25T18:32:00.060Z,100513.03
2023-02-25T18:34:27.827Z,100509.84
2023-02-25T18:36:56.042Z,100507.81
2023-02-25T18:39:24.092Z,100511.75
2023-02-25T18:41:51.752Z,100504.84
2023-02-25T18:44:19.617Z,100511.81
2023-02-25T18:46:48.691Z,100514.16
2023-02-25T18:49:16.392Z,100515.56
2023-02-25T18:51:44.058Z,100512.47
2023-02-25T18:54:16.379Z,100511.00
2023-02-25T18:56:44.273Z,100517.44
2023-02-25T18:59:11.954Z,100516.09
2023-02-25T19:01:39.896Z,100538.03
2023-02-25T19:04:10.399Z,100541.13
2023-02-25T19:06:38.072Z,100536.44
2023-02-25T19:09:06.460Z,100536.84
2023-02-25T19:11:36.992Z,100546.09
2023-02-25T19:14:05.888Z,100543.09
2023-02-25T19:16:33.667Z,100539.31
2023-02-25T19:19:01.728Z,100536.22
2023-02-25T19:21:30.864Z,100536.69
2023-02-25T19:23:58.723Z,100544.84
2023-02-25T19:26:26.829Z,100539.91
2023-02-25T19:28:54.806Z,100546.47
2023-02-25T19:31:22.596Z,100546.53
2023-02-25T19:33:50.205Z,100551.16
2023-02-25T19:36:18.640Z,100541.25
2023-02-25T19:38:47.709Z,100549.50
2023-02-25T19:41:15.380Z,100547.84
2023-02-25T19:43:42.985Z,100549.53
2023-02-25T19:46:11.277Z,100559.75
2023-02-25T19:48:38.964Z,100560.41
2023-02-25T19:51:07.626Z,100558.06
2023-02-25T19:53:35.727Z,100572.31
2023-02-25T19:56:05.433Z,100572.66
2023-02-25T19:58:33.363Z,100584.97
2023-02-25T20:01:05.815Z,100588.63
2023-02-25T20:03:33.854Z,100591.22
2023-02-25T20:06:06.723Z,100597.78
2023-02-25T20:08:35.687Z,100603.94
2023-02-25T20:11:09.042Z,100604.06
2023-02-25T20:13:38.330Z,100604.50
2023-02-25T20:16:06.960Z,100604.38
2023-02-25T20:18:34.770Z,100602.34
2023-02-25T20:21:02.427Z,100611.53
2023-02-25T20:23:30.956Z,100622.28
2023-02-25T20:26:05.860Z,100615.78
2023-02-25T20:28:33.628Z,100630.22
2023-02-25T20:31:05.620Z,100633.41
2023-02-25T20:33:33.411Z,100629.19
2023-02-25T20:36:01.717Z,100630.75
2023-02-25T20:38:33.672Z,100633.78
2023-02-25T20:41:01.534Z,100627.91
2023-02-25T20:43:31.119Z,100635.88
2023-02-25T20:45:59.198Z,100621.16
2023-02-25T20:48:29.173Z,100609.50
2023-02-25T20:50:57.223Z,100611.53
2023-02-25T20:53:25.338Z,100615.75
2023-02-25T20:55:55.245Z,100618.13
2023-02-25T20:58:22.853Z,100622.47
2023-02-25T21:00:51.933Z,100615.41
2023-02-25T21:03:19.797Z,100615.16
2023-02-25T21:05:47.475Z,100612.69
2023-02-25T21:08:15.136Z,100604.19
2023-02-25T21:10:43.353Z,100611.63
2023-02-25T21:13:10.988Z,100622.00
2023-02-25T21:15:38.708Z,100610.66
2023-02-25T21:18:07.766Z,100619.16
2023-02-25T21:20:35.446Z,100616.41
2023-02-25T21:23:03.119Z,100617.00
2023-02-25T21:25:31.990Z,100618.31
2023-02-25T21:27:59.659Z,100621.44
2023-02-25T21:30:27.656Z,100626.81
2023-02-25T21:32:55.384Z,100633.78
2023-02-25T21:35:25.796Z,100637.19
2023-02-25T21:37:53.438Z,100639.06
2023-02-25T21:40:21.157Z,100649.06
2023-02-25T21:42:49.901Z,100655.06
2023-02-25T21:45:17.701Z,100645.56
2023-02-25T21:47:45.599Z,100651.25
2023-02-25T21:50:13.446Z,100668.53
2023-02-25T21:52:42.785Z,100665.41
2023-02-25T21:55:11.126Z,100673.13
2023-02-25T21:57:39.112Z,100672.06
2023-02-25T22:00:11.094Z,100679.69
2023-02-25T22:02:38.809Z,100671.16
2023-02-25T22:05:07.319Z,100682.19
2023-02-25T22:07:35.006Z,100684.84
2023-02-25T22:10:04.500Z,100695.97
2023-02-25T22:12:32.347Z,100694.50
2023-02-25T22:14:59.996Z,100693.72
2023-02-25T22:17:28.638Z,100688.72
2023-02-25T22:19:56.390Z,100688.91
2023-02-25T22:22:24.028Z,100704.06
2023-02-25T22:24:51.672Z,100700.59
2023-02-25T22:27:20.995Z,100698.41
2023-02-25T22:29:48.657Z,100701.00
2023-02-25T22:32:16.682Z,100701.50
2023-02-25T22:34:44.414Z,100701.19
2023-02-25T22:37:12.117Z,100702.97
2023-02-25T22:39:39.757Z,100708.56
2023-02-25T22:42:07.569Z,100715.47
2023-02-25T22:44:38.894Z,100715.97
2023-02-25T22:47:06.583Z,100721.13
2023-02-25T22:49:34.493Z,100718.59
2023-02-25T22:52:02.162Z,100714.31
2023-02-25T22:54:29.832Z,100722.97
2023-02-25T22:56:57.552Z,100722.66
2023-02-25T22:59:25.280Z,100728.13
2023-02-25T23:01:54.686Z,100729.16
2023-02-25T23:04:22.364Z,100735.19
2023-02-25T23:06:51.815Z,100738.09
2023-02-25T23:09:19.463Z,100737.69
2023-02-25T23:11:47.172Z,100737.16
2023-02-25T23:14:15.316Z,100746.56
2023-02-25T23:16:44.708Z,100745.72
2023-02-25T23:19:16.293Z,100758.31
2023-02-25T23:21:44.073Z,100740.19
2023-02-25T23:24:16.094Z,100742.22
2023-02-25T23:26:44.869Z,100763.38
2023-02-25T23:29:13.522Z,100767.59
2023-02-25T23:31:44.262Z,100768.84
2023-02-25T23:34:15.004Z,100754.16
2023-02-25T23:36:44.314Z,100751.91
2023-02-25T23:39:12.926Z,100758.66
2023-02-25T23:41:40.729Z,100757.31
2023-02-25T23:44:09.643Z,100761.78
2023-02-25T23:46:37.691Z,100767.47
2023-02-25T23:49:07.157Z,100775.78
2023-02-25T23:51:36.723Z,100768.25
2023-02-25T23:54:06.318Z,100760.91
2023-02-25T23:56:35.207Z,100766.56
2023-02-25T23:59:03.169Z,100771.06
